Time;durP1;ratioP1;P1;durP2;ratioP2;P2;SDS_P1;SDS_P2;PMS_P1;PMS_P2;Temp;Humidity;BMP_temperature;BMP_pressure;BME280_temperature;BME280_humidity;BME280_pressure;Samples;Min_cycle;Max_cycle;Signal;HPM_P1;HPM_P2
2022/07/29 00:01:58;;;;;;;4.65;1.58;;;;;;;;;;5014611;28;20041;-64
2022/07/29 00:04:25;;;;;;;3.75;1.20;;;;;;;;;;5017670;28;21339;-64
2022/07/29 00:06:53;;;;;;;4.25;1.05;;;;;;;;;;5019218;28;20045;-64
2022/07/29 00:09:20;;;;;;;3.47;1.20;;;;;;;;;;5018292;28;20419;-64
2022/07/29 00:11:47;;;;;;;5.70;1.27;;;;;;;;;;5016029;28;20056;-64
2022/07/29 00:14:14;;;;;;;3.85;1.20;;;;;;;;;;5000971;28;20291;-64
2022/07/29 00:16:43;;;;;;;3.60;1.00;;;;;;;;;;5015022;28;20350;-64
2022/07/29 00:19:10;;;;;;;4.35;1.25;;;;;;;;;;5010841;28;20489;-64
2022/07/29 00:21:37;;;;;;;6.40;1.17;;;;;;;;;;5018953;28;20038;-64
2022/07/29 00:24:05;;;;;;;4.18;1.27;;;;;;;;;;5013849;28;20057;-64
2022/07/29 00:26:32;;;;;;;5.60;1.20;;;;;;;;;;5000660;28;20057;-64
2022/07/29 00:29:00;;;;;;;3.92;1.30;;;;;;;;;;5019062;28;20057;-64
2022/07/29 00:31:27;;;;;;;5.82;1.40;;;;;;;;;;5017396;28;20400;-64
2022/07/29 00:33:55;;;;;;;5.15;1.30;;;;;;;;;;5018107;28;20072;-64
2022/07/29 00:36:22;;;;;;;3.78;1.30;;;;;;;;;;5013785;28;20094;-64
2022/07/29 00:38:49;;;;;;;3.83;1.20;;;;;;;;;;5010330;28;20270;-64
2022/07/29 00:41:17;;;;;;;8.30;1.50;;;;;;;;;;5001757;28;20053;-64
2022/07/29 00:43:44;;;;;;;4.43;1.60;;;;;;;;;;5013985;28;20050;-64
2022/07/29 00:46:11;;;;;;;8.35;1.85;;;;;;;;;;5018551;28;20049;-64
2022/07/29 00:48:39;;;;;;;3.60;1.35;;;;;;;;;;5011566;28;20397;-65
2022/07/29 00:51:10;;;;;;;6.00;1.60;;;;;;;;;;5002201;28;20067;-64
2022/07/29 00:53:37;;;;;;;4.47;1.50;;;;;;;;;;5014859;28;20045;-64
2022/07/29 00:56:05;;;;;;;5.63;1.60;;;;;;;;;;5016545;28;20136;-64
2022/07/29 00:58:33;;;;;;;6.50;1.60;;;;;;;;;;5014234;28;20095;-64
2022/07/29 01:01:00;;;;;;;3.10;1.40;;;;;;;;;;5012852;28;20129;-64
2022/07/29 01:03:27;;;;;;;3.45;1.35;;;;;;;;;;5014512;28;20053;-64
2022/07/29 01:05:55;;;;;;;7.45;1.63;;;;;;;;;;4999722;28;20057;-64
2022/07/29 01:08:24;;;;;;;4.38;1.55;;;;;;;;;;5000783;28;20059;-64
2022/07/29 01:10:52;;;;;;;5.60;1.50;;;;;;;;;;5014938;28;20648;-64
2022/07/29 01:13:20;;;;;;;8.60;1.50;;;;;;;;;;5016215;28;20099;-64
2022/07/29 01:15:49;;;;;;;3.35;1.40;;;;;;;;;;5016730;28;20057;-64
2022/07/29 01:18:19;;;;;;;5.15;1.42;;;;;;;;;;5019936;28;20133;-64
2022/07/29 01:20:57;;;;;;;3.50;1.38;;;;;;;;;;5017968;28;20053;-64
2022/07/29 01:23:35;;;;;;;5.55;1.50;;;;;;;;;;5017955;28;20123;-64
2022/07/29 01:26:09;;;;;;;3.45;1.40;;;;;;;;;;5021493;28;20057;-64
2022/07/29 01:28:54;;;;;;;6.53;1.77;;;;;;;;;;4999888;28;20057;-64
2022/07/29 01:31:26;;;;;;;2.67;1.27;;;;;;;;;;5018931;28;20060;-65
2022/07/29 01:33:56;;;;;;;2.80;1.20;;;;;;;;;;5012651;28;20073;-64
2022/07/29 01:36:25;;;;;;;5.88;1.20;;;;;;;;;;5012931;28;20291;-64
2022/07/29 01:38:55;;;;;;;5.75;1.20;;;;;;;;;;5013394;28;20052;-64
2022/07/29 01:41:23;;;;;;;2.78;1.17;;;;;;;;;;5022338;28;20049;-65
2022/07/29 01:43:52;;;;;;;6.10;1.48;;;;;;;;;;5020840;28;20061;-65
2022/07/29 01:46:21;;;;;;;5.90;1.33;;;;;;;;;;5016830;28;20050;-64
2022/07/29 01:48:53;;;;;;;7.18;1.58;;;;;;;;;;5015942;28;20175;-64
2022/07/29 01:51:21;;;;;;;6.53;1.85;;;;;;;;;;4999027;28;20045;-64
2022/07/29 01:53:53;;;;;;;2.58;1.30;;;;;;;;;;5023994;28;20128;-64
2022/07/29 01:56:21;;;;;;;7.15;1.38;;;;;;;;;;5006284;28;20053;-64
2022/07/29 01:58:49;;;;;;;4.40;1.45;;;;;;;;;;5003913;28;20555;-64
2022/07/29 02:01:17;;;;;;;5.22;1.38;;;;;;;;;;5016052;28;20052;-64
2022/07/29 02:03:45;;;;;;;3.83;1.60;;;;;;;;;;5014895;28;20088;-64
2022/07/29 02:06:16;;;;;;;3.97;1.45;;;;;;;;;;5016775;28;20060;-65
2022/07/29 02:08:44;;;;;;;5.85;1.67;;;;;;;;;;5017558;28;20046;-64
2022/07/29 02:11:11;;;;;;;5.40;1.52;;;;;;;;;;5002266;28;20056;-64
2022/07/29 02:13:39;;;;;;;4.18;1.35;;;;;;;;;;5016978;28;20045;-65
2022/07/29 02:16:08;;;;;;;6.30;1.70;;;;;;;;;;4998094;28;20650;-64
2022/07/29 02:18:37;;;;;;;4.30;1.75;;;;;;;;;;5025922;28;20103;-64
2022/07/29 02:21:05;;;;;;;5.70;1.65;;;;;;;;;;5018509;28;20076;-64
2022/07/29 02:23:34;;;;;;;7.03;1.50;;;;;;;;;;5020147;28;20050;-64
2022/07/29 02:26:02;;;;;;;6.07;1.60;;;;;;;;;;5002046;28;20143;-65
2022/07/29 02:28:30;;;;;;;2.97;1.27;;;;;;;;;;5002456;28;20056;-65
2022/07/29 02:30:59;;;;;;;4.85;1.50;;;;;;;;;;5020851;28;20050;-64
2022/07/29 02:33:27;;;;;;;4.47;1.35;;;;;;;;;;5017700;28;20171;-64
2022/07/29 02:35:54;;;;;;;4.80;1.40;;;;;;;;;;5019833;28;20046;-64
2022/07/29 02:41:11;;;;;;;4.45;1.40;;;;;;;;;;5017473;28;20056;-64
2022/07/29 02:43:38;;;;;;;4.28;1.50;;;;;;;;;;5020353;28;20049;-64
2022/07/29 02:46:06;;;;;;;5.90;1.40;;;;;;;;;;5018869;28;20762;-65
2022/07/29 02:48:38;;;;;;;6.55;1.45;;;;;;;;;;4998685;28;20132;-64
2022/07/29 02:51:07;;;;;;;4.25;1.30;;;;;;;;;;5003744;28;20412;-64
2022/07/29 02:53:35;;;;;;;3.83;1.40;;;;;;;;;;5016317;28;20049;-64
2022/07/29 02:56:05;;;;;;;2.10;1.08;;;;;;;;;;5003629;28;20049;-64
2022/07/29 02:58:35;;;;;;;5.57;1.55;;;;;;;;;;4996055;28;20100;-64
2022/07/29 03:01:04;;;;;;;7.35;1.40;;;;;;;;;;5016289;28;20460;-64
2022/07/29 03:03:33;;;;;;;5.22;1.50;;;;;;;;;;5017571;28;20381;-64
2022/07/29 03:06:02;;;;;;;3.35;1.38;;;;;;;;;;5018520;28;20104;-64
2022/07/29 03:08:30;;;;;;;4.70;1.50;;;;;;;;;;5021271;28;20049;-64
2022/07/29 03:10:58;;;;;;;6.18;1.60;;;;;;;;;;5024219;28;20511;-65
2022/07/29 03:13:25;;;;;;;7.75;1.92;;;;;;;;;;5020444;28;20042;-64
2022/07/29 03:15:55;;;;;;;3.72;1.27;;;;;;;;;;5021154;28;20060;-64
2022/07/29 03:18:22;;;;;;;3.88;1.23;;;;;;;;;;5015806;28;20100;-65
2022/07/29 03:20:49;;;;;;;8.68;1.38;;;;;;;;;;5019154;28;20107;-65
2022/07/29 03:23:20;;;;;;;4.97;1.35;;;;;;;;;;5021743;28;20053;-64
2022/07/29 03:25:48;;;;;;;3.33;1.50;;;;;;;;;;5023110;28;20053;-64
2022/07/29 03:28:15;;;;;;;4.90;1.30;;;;;;;;;;5022429;28;20065;-64
2022/07/29 03:30:42;;;;;;;4.68;1.60;;;;;;;;;;5017659;28;20496;-65
2022/07/29 03:33:11;;;;;;;4.07;1.40;;;;;;;;;;5021841;28;20103;-65
2022/07/29 03:35:38;;;;;;;8.80;1.65;;;;;;;;;;5004001;28;20060;-64
2022/07/29 03:38:05;;;;;;;7.25;1.98;;;;;;;;;;5019188;28;20451;-64
2022/07/29 03:40:34;;;;;;;5.40;1.63;;;;;;;;;;5020751;28;20130;-64
2022/07/29 03:43:02;;;;;;;6.20;1.52;;;;;;;;;;5003152;28;20053;-64
2022/07/29 03:45:30;;;;;;;4.72;1.92;;;;;;;;;;5015333;28;20053;-64
2022/07/29 03:47:59;;;;;;;6.47;1.70;;;;;;;;;;5017510;28;20049;-64
2022/07/29 03:50:29;;;;;;;5.85;1.65;;;;;;;;;;5021884;28;20053;-64
2022/07/29 03:52:56;;;;;;;5.78;1.88;;;;;;;;;;5018764;28;20049;-64
2022/07/29 03:55:25;;;;;;;4.45;1.70;;;;;;;;;;5013365;28;20042;-64
2022/07/29 03:57:52;;;;;;;7.35;1.60;;;;;;;;;;5016027;28;20053;-64
2022/07/29 04:00:20;;;;;;;5.10;1.70;;;;;;;;;;5016939;28;20404;-64
2022/07/29 04:02:48;;;;;;;5.25;1.80;;;;;;;;;;5019926;28;20169;-64
2022/07/29 04:05:15;;;;;;;7.75;1.60;;;;;;;;;;5022281;28;20064;-64
2022/07/29 04:07:46;;;;;;;5.32;1.70;;;;;;;;;;5019296;28;20049;-64
2022/07/29 04:10:15;;;;;;;4.43;1.75;;;;;;;;;;5000039;28;20199;-64
2022/07/29 04:12:42;;;;;;;7.18;1.65;;;;;;;;;;5000622;28;20089;-64
2022/07/29 04:15:10;;;;;;;3.70;1.48;;;;;;;;;;5012185;28;20045;-64
2022/07/29 04:17:37;;;;;;;5.43;1.73;;;;;;;;;;5022170;28;20061;-64
2022/07/29 04:20:05;;;;;;;5.35;1.58;;;;;;;;;;5019281;28;20069;-64
2022/07/29 04:22:32;;;;;;;7.32;1.52;;;;;;;;;;5018327;28;20060;-64
2022/07/29 04:25:01;;;;;;;4.47;1.48;;;;;;;;;;5014914;28;20107;-64
2022/07/29 04:27:28;;;;;;;5.45;1.67;;;;;;;;;;5022326;28;20756;-64
2022/07/29 04:29:55;;;;;;;4.10;1.40;;;;;;;;;;5022311;28;20053;-64
2022/07/29 04:32:22;;;;;;;3.88;1.40;;;;;;;;;;5022041;28;20049;-64
2022/07/29 04:34:49;;;;;;;6.38;1.48;;;;;;;;;;5014631;28;20100;-64
2022/07/29 04:37:16;;;;;;;9.10;1.77;;;;;;;;;;4997709;28;20062;-64
2022/07/29 04:39:44;;;;;;;4.75;1.17;;;;;;;;;;5018248;28;20058;-64
2022/07/29 04:42:12;;;;;;;6.53;1.70;;;;;;;;;;5018948;28;20125;-64
2022/07/29 04:44:39;;;;;;;7.18;1.63;;;;;;;;;;5019568;28;20402;-65
2022/07/29 04:47:09;;;;;;;5.97;1.58;;;;;;;;;;5002119;28;20069;-64
2022/07/29 04:49:39;;;;;;;5.85;1.40;;;;;;;;;;5013947;28;20054;-64
2022/07/29 04:52:06;;;;;;;5.20;1.73;;;;;;;;;;5022093;28;20412;-64
2022/07/29 04:54:33;;;;;;;4.47;1.45;;;;;;;;;;5012177;28;20100;-65
2022/07/29 04:57:01;;;;;;;8.23;1.40;;;;;;;;;;5001241;28;20049;-64
2022/07/29 04:59:29;;;;;;;7.13;1.73;;;;;;;;;;4992417;28;20054;-64
2022/07/29 05:01:56;;;;;;;5.35;1.70;;;;;;;;;;5002111;28;20787;-64
2022/07/29 05:04:24;;;;;;;4.57;1.52;;;;;;;;;;5012062;28;20046;-64
2022/07/29 05:06:51;;;;;;;7.30;1.77;;;;;;;;;;5014347;28;20061;-64
2022/07/29 05:09:18;;;;;;;4.80;1.38;;;;;;;;;;5011040;28;21117;-65
2022/07/29 05:11:45;;;;;;;2.47;1.20;;;;;;;;;;5014832;28;20050;-64
2022/07/29 05:14:12;;;;;;;10.50;1.48;;;;;;;;;;5022296;28;20053;-64
2022/07/29 05:16:41;;;;;;;5.88;1.30;;;;;;;;;;5023429;28;20053;-64
2022/07/29 05:19:09;;;;;;;5.28;1.27;;;;;;;;;;5005527;28;20065;-64
2022/07/29 05:21:36;;;;;;;7.07;1.35;;;;;;;;;;5019584;28;20496;-64
2022/07/29 05:24:03;;;;;;;4.80;1.15;;;;;;;;;;5018396;28;20067;-64
2022/07/29 05:26:30;;;;;;;7.40;1.80;;;;;;;;;;5018230;28;20045;-64
2022/07/29 05:28:58;;;;;;;6.60;1.35;;;;;;;;;;5023668;28;20520;-64
2022/07/29 05:31:25;;;;;;;8.27;1.55;;;;;;;;;;5019144;28;20045;-64
2022/07/29 05:33:53;;;;;;;7.25;1.30;;;;;;;;;;5005538;28;20061;-64
2022/07/29 05:36:21;;;;;;;7.15;1.80;;;;;;;;;;5024983;28;20049;-64
2022/07/29 05:38:48;;;;;;;6.43;1.58;;;;;;;;;;5019815;28;20064;-65
2022/07/29 05:41:15;;;;;;;4.88;1.30;;;;;;;;;;5020313;28;20078;-64
2022/07/29 05:43:42;;;;;;;5.43;1.60;;;;;;;;;;5019825;28;20443;-64
2022/07/29 05:46:09;;;;;;;4.07;1.40;;;;;;;;;;5029038;28;20604;-64
2022/07/29 05:48:37;;;;;;;7.32;1.58;;;;;;;;;;5020258;28;20144;-65
2022/07/29 05:51:05;;;;;;;8.80;1.38;;;;;;;;;;5019795;28;20574;-65
2022/07/29 05:53:33;;;;;;;10.25;1.50;;;;;;;;;;5018607;28;20046;-64
2022/07/29 05:56:04;;;;;;;9.32;1.40;;;;;;;;;;5021477;28;20064;-64
2022/07/29 05:58:31;;;;;;;5.95;1.30;;;;;;;;;;5021390;28;20049;-64
2022/07/29 06:00:59;;;;;;;6.03;1.50;;;;;;;;;;5021922;28;20057;-64
2022/07/29 06:03:26;;;;;;;9.30;1.80;;;;;;;;;;5002885;28;20652;-65
2022/07/29 06:05:53;;;;;;;4.82;1.23;;;;;;;;;;5024548;28;20056;-64
2022/07/29 06:08:22;;;;;;;6.00;1.52;;;;;;;;;;5019762;28;20100;-64
2022/07/29 06:10:49;;;;;;;4.43;1.20;;;;;;;;;;5027576;28;20072;-64
2022/07/29 06:13:16;;;;;;;11.85;1.88;;;;;;;;;;5021721;28;20042;-64
2022/07/29 06:15:44;;;;;;;8.95;2.03;;;;;;;;;;5021125;28;20112;-64
2022/07/29 06:18:11;;;;;;;5.03;1.60;;;;;;;;;;5017680;28;20050;-64
2022/07/29 06:20:38;;;;;;;7.40;1.60;;;;;;;;;;5023079;28;20054;-64
2022/07/29 06:23:05;;;;;;;4.25;1.20;;;;;;;;;;5022819;28;20053;-65
2022/07/29 06:25:35;;;;;;;12.95;2.28;;;;;;;;;;5015935;28;20053;-65
2022/07/29 06:28:02;;;;;;;7.22;1.30;;;;;;;;;;5009603;28;20144;-65
2022/07/29 06:30:30;;;;;;;6.65;1.58;;;;;;;;;;5021724;28;20049;-65
2022/07/29 06:32:57;;;;;;;4.07;1.20;;;;;;;;;;5024949;28;20064;-64
2022/07/29 06:35:24;;;;;;;7.68;1.60;;;;;;;;;;5019869;28;20449;-64
2022/07/29 06:37:51;;;;;;;6.75;1.55;;;;;;;;;;5023253;28;20053;-65
2022/07/29 06:43:05;;;;;;;4.43;1.40;;;;;;;;;;5018001;28;20045;-64
2022/07/29 06:45:35;;;;;;;7.25;1.35;;;;;;;;;;5025781;28;20054;-65
2022/07/29 06:48:02;;;;;;;5.88;1.40;;;;;;;;;;5027418;28;20052;-64
2022/07/29 06:50:29;;;;;;;4.78;1.42;;;;;;;;;;5021851;28;20053;-64
2022/07/29 06:52:56;;;;;;;7.18;1.40;;;;;;;;;;5025833;28;20053;-65
2022/07/29 06:55:24;;;;;;;8.27;1.38;;;;;;;;;;5007883;28;20812;-65
2022/07/29 06:57:52;;;;;;;6.63;1.42;;;;;;;;;;5021550;28;20141;-65
2022/07/29 07:00:20;;;;;;;6.20;1.40;;;;;;;;;;5022012;28;20055;-65
2022/07/29 07:02:47;;;;;;;6.50;1.50;;;;;;;;;;5027420;28;20100;-64
2022/07/29 07:05:15;;;;;;;6.75;1.30;;;;;;;;;;5024007;28;20045;-65
2022/07/29 07:07:42;;;;;;;5.53;1.50;;;;;;;;;;5005122;28;20073;-65
2022/07/29 07:10:10;;;;;;;10.07;1.50;;;;;;;;;;5003633;28;20156;-64
2022/07/29 07:12:37;;;;;;;6.68;1.25;;;;;;;;;;5019457;28;20053;-65
2022/07/29 07:15:04;;;;;;;5.70;1.35;;;;;;;;;;5006472;28;20057;-64
2022/07/29 07:17:33;;;;;;;4.88;1.73;;;;;;;;;;5021509;28;20057;-64
2022/07/29 07:20:00;;;;;;;9.88;1.63;;;;;;;;;;5021183;28;20056;-64
2022/07/29 07:22:27;;;;;;;6.35;1.60;;;;;;;;;;5026184;28;20803;-64
2022/07/29 07:24:55;;;;;;;5.80;1.40;;;;;;;;;;5026737;28;20064;-65
2022/07/29 07:27:22;;;;;;;4.47;1.63;;;;;;;;;;5023035;28;20049;-65
2022/07/29 07:29:49;;;;;;;8.75;1.30;;;;;;;;;;5001595;28;20053;-64
2022/07/29 07:32:16;;;;;;;4.78;1.50;;;;;;;;;;5025716;28;20053;-65
2022/07/29 07:34:45;;;;;;;4.97;1.40;;;;;;;;;;5024186;28;20046;-65
2022/07/29 07:37:14;;;;;;;7.88;1.50;;;;;;;;;;5004310;28;20101;-65
2022/07/29 07:39:41;;;;;;;5.55;1.40;;;;;;;;;;5022735;28;20049;-65
2022/07/29 07:42:10;;;;;;;5.35;1.90;;;;;;;;;;5022546;28;20625;-65
2022/07/29 07:44:37;;;;;;;7.60;1.67;;;;;;;;;;5024390;28;20056;-65
2022/07/29 07:47:04;;;;;;;6.65;1.60;;;;;;;;;;5016812;28;20061;-64
2022/07/29 07:49:31;;;;;;;6.05;1.45;;;;;;;;;;5025855;28;20152;-65
2022/07/29 07:52:00;;;;;;;7.05;1.08;;;;;;;;;;5024308;28;20041;-65
2022/07/29 07:54:27;;;;;;;7.85;1.60;;;;;;;;;;5026514;28;20052;-65
2022/07/29 07:56:54;;;;;;;8.20;1.67;;;;;;;;;;5023719;28;20103;-65
2022/07/29 07:59:22;;;;;;;5.90;1.58;;;;;;;;;;5021529;28;20054;-64
2022/07/29 08:01:49;;;;;;;7.65;1.60;;;;;;;;;;5021970;28;20045;-65
2022/07/29 08:04:16;;;;;;;7.05;1.75;;;;;;;;;;5020743;28;20165;-65
2022/07/29 08:06:44;;;;;;;6.43;1.70;;;;;;;;;;5015993;28;20057;-65
2022/07/29 08:09:12;;;;;;;7.20;1.90;;;;;;;;;;5021439;28;20054;-65
2022/07/29 08:11:39;;;;;;;10.68;1.70;;;;;;;;;;4998348;28;20064;-65
2022/07/29 08:14:06;;;;;;;4.35;1.65;;;;;;;;;;5022420;28;20096;-65
2022/07/29 08:16:34;;;;;;;17.05;1.80;;;;;;;;;;5023289;28;20050;-65
2022/07/29 08:19:01;;;;;;;7.32;1.70;;;;;;;;;;5026182;28;20492;-65
2022/07/29 08:21:28;;;;;;;7.15;1.70;;;;;;;;;;5015149;28;20050;-64
2022/07/29 08:24:42;;;;;;;3.97;1.75;;;;;;;;;;5024289;28;20058;-65
2022/07/29 08:26:44;;;;;;;6.45;1.48;;;;;;;;;;5004908;28;20064;-65
2022/07/29 08:29:12;;;;;;;3.17;1.40;;;;;;;;;;5019805;28;20068;-65
2022/07/29 08:31:40;;;;;;;4.88;1.83;;;;;;;;;;5002362;28;20439;-65
2022/07/29 08:34:07;;;;;;;7.35;1.67;;;;;;;;;;5021680;28;20057;-64
2022/07/29 08:36:35;;;;;;;5.13;1.67;;;;;;;;;;5016232;28;20060;-65
2022/07/29 08:39:03;;;;;;;6.05;1.67;;;;;;;;;;5022014;28;20192;-65
2022/07/29 08:41:31;;;;;;;7.22;1.65;;;;;;;;;;5025135;28;20049;-65
2022/07/29 08:43:59;;;;;;;7.70;1.85;;;;;;;;;;5025040;28;20041;-65
2022/07/29 08:46:27;;;;;;;5.70;1.80;;;;;;;;;;5015066;28;20041;-65
2022/07/29 08:48:54;;;;;;;6.90;2.20;;;;;;;;;;5010790;28;20056;-65
2022/07/29 08:51:22;;;;;;;7.15;1.60;;;;;;;;;;5017151;28;20456;-66
2022/07/29 08:53:50;;;;;;;5.35;1.98;;;;;;;;;;5019730;28;20087;-65
2022/07/29 08:56:18;;;;;;;7.80;1.67;;;;;;;;;;5016788;28;20061;-65
2022/07/29 08:58:45;;;;;;;6.88;1.73;;;;;;;;;;5022847;28;20046;-65
2022/07/29 09:01:15;;;;;;;6.13;1.90;;;;;;;;;;5018352;28;20049;-65
2022/07/29 09:03:45;;;;;;;7.30;2.00;;;;;;;;;;5017682;28;20057;-65
2022/07/29 09:06:14;;;;;;;7.25;1.65;;;;;;;;;;5011029;28;20049;-65
2022/07/29 09:08:41;;;;;;;7.40;1.88;;;;;;;;;;5024224;28;20050;-65
2022/07/29 09:11:09;;;;;;;4.45;1.60;;;;;;;;;;4998747;28;20054;-65
2022/07/29 09:13:36;;;;;;;6.68;1.88;;;;;;;;;;5013115;28;20140;-65
2022/07/29 09:16:04;;;;;;;6.60;2.08;;;;;;;;;;4996498;28;20065;-65
2022/07/29 09:18:36;;;;;;;7.22;2.22;;;;;;;;;;5018852;28;20049;-65
2022/07/29 09:24:01;;;;;;;6.80;1.42;;;;;;;;;;5019656;28;20042;-64
2022/07/29 09:26:29;;;;;;;7.35;1.98;;;;;;;;;;5017549;28;20584;-65
2022/07/29 09:28:56;;;;;;;8.07;2.05;;;;;;;;;;5016693;28;20509;-65
2022/07/29 09:31:33;;;;;;;6.72;1.55;;;;;;;;;;5019236;28;20068;-65
2022/07/29 09:34:02;;;;;;;9.63;1.92;;;;;;;;;;5016082;28;20140;-64
2022/07/29 09:36:29;;;;;;;6.93;1.95;;;;;;;;;;5000895;28;20049;-65
2022/07/29 09:39:00;;;;;;;8.05;2.55;;;;;;;;;;5014399;28;20141;-65
2022/07/29 09:41:28;;;;;;;5.72;1.80;;;;;;;;;;5019506;28;20045;-65
2022/07/29 09:43:56;;;;;;;11.48;2.03;;;;;;;;;;5013231;28;20064;-65
2022/07/29 09:46:23;;;;;;;8.23;2.00;;;;;;;;;;5018050;28;20050;-65
2022/07/29 09:49:05;;;;;;;10.15;2.20;;;;;;;;;;5013351;28;20089;-65
2022/07/29 09:51:34;;;;;;;6.90;2.08;;;;;;;;;;5014076;28;20069;-65
2022/07/29 09:54:03;;;;;;;5.80;2.08;;;;;;;;;;5016130;28;20492;-65
2022/07/29 09:56:40;;;;;;;6.63;1.90;;;;;;;;;;4994730;28;20061;-65
2022/07/29 09:59:07;;;;;;;7.03;1.88;;;;;;;;;;5003021;28;20530;-64
2022/07/29 10:01:35;;;;;;;9.02;2.47;;;;;;;;;;5008701;28;20061;-65
2022/07/29 10:04:02;;;;;;;6.25;1.85;;;;;;;;;;5025428;28;20097;-65
2022/07/29 10:06:30;;;;;;;7.07;2.08;;;;;;;;;;5010093;28;20053;-64
2022/07/29 10:09:08;;;;;;;6.82;2.10;;;;;;;;;;5021264;28;20072;-65
2022/07/29 10:11:35;;;;;;;10.13;2.13;;;;;;;;;;5016933;28;20215;-65
2022/07/29 10:14:03;;;;;;;10.98;2.08;;;;;;;;;;5027416;28;20096;-65
2022/07/29 10:16:32;;;;;;;9.05;2.40;;;;;;;;;;5023291;28;20183;-65
2022/07/29 10:19:00;;;;;;;5.28;2.03;;;;;;;;;;5020146;28;20045;-64
2022/07/29 10:21:29;;;;;;;6.85;2.13;;;;;;;;;;5019047;28;20057;-65
2022/07/29 10:23:56;;;;;;;7.88;2.30;;;;;;;;;;5022960;28;20149;-65
2022/07/29 10:26:25;;;;;;;6.72;2.13;;;;;;;;;;5022763;28;20060;-65
2022/07/29 10:28:52;;;;;;;5.45;2.22;;;;;;;;;;5025313;28;20061;-65
2022/07/29 10:31:23;;;;;;;7.68;2.13;;;;;;;;;;5006479;28;20527;-65
2022/07/29 10:33:56;;;;;;;5.28;2.20;;;;;;;;;;5028361;28;20488;-65
2022/07/29 10:36:34;;;;;;;7.37;2.20;;;;;;;;;;5021457;28;20050;-65
2022/07/29 10:39:06;;;;;;;9.40;2.60;;;;;;;;;;5026745;28;20327;-64
2022/07/29 10:41:51;;;;;;;8.32;2.45;;;;;;;;;;5015857;28;20409;-65
2022/07/29 10:44:21;;;;;;;8.05;2.45;;;;;;;;;;5024261;28;20099;-65
2022/07/29 10:46:48;;;;;;;7.75;2.25;;;;;;;;;;5022790;28;20481;-65
2022/07/29 10:49:17;;;;;;;5.47;2.10;;;;;;;;;;5014082;28;20054;-65
2022/07/29 10:51:57;;;;;;;7.72;2.53;;;;;;;;;;5016415;28;20071;-65
2022/07/29 10:54:42;;;;;;;5.97;2.13;;;;;;;;;;5023963;28;20053;-65
2022/07/29 10:57:16;;;;;;;10.15;2.75;;;;;;;;;;5020429;28;20464;-65
2022/07/29 10:59:46;;;;;;;8.52;2.72;;;;;;;;;;5022021;28;20428;-64
2022/07/29 11:02:40;;;;;;;10.05;2.60;;;;;;;;;;5022213;28;20519;-64
2022/07/29 11:05:08;;;;;;;6.93;2.25;;;;;;;;;;4965403;28;20112;-64
2022/07/29 11:07:36;;;;;;;9.00;2.63;;;;;;;;;;5021632;28;20049;-64
2022/07/29 11:10:22;;;;;;;9.45;2.38;;;;;;;;;;5019148;28;20050;-65
2022/07/29 11:12:50;;;;;;;7.18;2.20;;;;;;;;;;5000811;28;20076;-64
2022/07/29 11:15:20;;;;;;;6.28;2.58;;;;;;;;;;5015552;28;20046;-65
2022/07/29 11:18:07;;;;;;;10.55;2.55;;;;;;;;;;5002002;28;20060;-64
2022/07/29 11:20:35;;;;;;;8.40;2.38;;;;;;;;;;5003482;28;20061;-65
2022/07/29 11:23:03;;;;;;;12.73;2.53;;;;;;;;;;5024146;28;20107;-65
2022/07/29 11:25:30;;;;;;;6.38;2.47;;;;;;;;;;5002129;28;20053;-65
2022/07/29 11:28:10;;;;;;;6.97;2.53;;;;;;;;;;5022275;28;20132;-65
2022/07/29 11:30:51;;;;;;;10.30;2.80;;;;;;;;;;5022555;28;20853;-65
2022/07/29 11:33:29;;;;;;;8.77;2.90;;;;;;;;;;5021683;28;20070;-65
2022/07/29 11:36:09;;;;;;;4.43;2.20;;;;;;;;;;5021239;28;20046;-65
2022/07/29 11:38:36;;;;;;;6.15;2.90;;;;;;;;;;5020353;28;20088;-65
2022/07/29 11:41:22;;;;;;;12.18;2.72;;;;;;;;;;5023920;28;20076;-65
2022/07/29 11:43:50;;;;;;;9.93;2.85;;;;;;;;;;5004539;28;20074;-65
2022/07/29 11:46:20;;;;;;;7.72;2.72;;;;;;;;;;5006586;28;20162;-65
2022/07/29 11:48:47;;;;;;;6.80;2.78;;;;;;;;;;5021096;28;20084;-65
2022/07/29 11:51:14;;;;;;;8.07;2.80;;;;;;;;;;5023209;28;20042;-65
2022/07/29 11:53:47;;;;;;;5.88;2.50;;;;;;;;;;5019337;28;20455;-65
2022/07/29 11:56:16;;;;;;;8.98;3.00;;;;;;;;;;5002031;28;20060;-65
2022/07/29 11:58:43;;;;;;;7.63;2.90;;;;;;;;;;5005614;28;20053;-65
2022/07/29 12:01:14;;;;;;;8.70;3.10;;;;;;;;;;5025279;28;20087;-65
2022/07/29 12:03:43;;;;;;;8.20;2.60;;;;;;;;;;5006808;28;20049;-65
2022/07/29 12:06:14;;;;;;;4.63;2.47;;;;;;;;;;5023572;28;20041;-65
2022/07/29 12:08:42;;;;;;;9.20;3.13;;;;;;;;;;5023542;28;20128;-65
2022/07/29 12:11:16;;;;;;;8.30;2.90;;;;;;;;;;5004752;28;20141;-65
2022/07/29 12:13:43;;;;;;;10.23;3.03;;;;;;;;;;5017268;28;20091;-65
2022/07/29 12:16:11;;;;;;;5.95;2.60;;;;;;;;;;5020173;28;20053;-65
2022/07/29 12:18:38;;;;;;;9.93;2.90;;;;;;;;;;5020189;28;20053;-65
2022/07/29 12:21:08;;;;;;;10.00;3.00;;;;;;;;;;5021912;28;20037;-65
2022/07/29 12:23:35;;;;;;;11.05;2.65;;;;;;;;;;5022398;28;20049;-65
2022/07/29 12:26:05;;;;;;;9.70;3.00;;;;;;;;;;5023785;28;20053;-65
2022/07/29 12:28:38;;;;;;;10.02;2.70;;;;;;;;;;5018755;28;20165;-65
2022/07/29 12:31:06;;;;;;;10.52;2.50;;;;;;;;;;5024779;28;20057;-65
2022/07/29 12:33:34;;;;;;;8.00;2.20;;;;;;;;;;5023372;28;20111;-65
2022/07/29 12:36:03;;;;;;;6.47;2.40;;;;;;;;;;5022189;28;20099;-65
2022/07/29 12:38:32;;;;;;;11.57;2.55;;;;;;;;;;5012514;28;20054;-65
2022/07/29 12:40:59;;;;;;;12.55;2.72;;;;;;;;;;5022673;28;20499;-65
2022/07/29 12:43:26;;;;;;;7.53;2.42;;;;;;;;;;5025963;28;20053;-65
2022/07/29 12:45:54;;;;;;;7.05;2.45;;;;;;;;;;5004440;28;20057;-65
2022/07/29 12:48:34;;;;;;;7.05;2.92;;;;;;;;;;5025226;28;20051;-65
2022/07/29 12:51:02;;;;;;;9.50;2.97;;;;;;;;;;5017451;28;20045;-65
2022/07/29 12:53:30;;;;;;;9.52;2.80;;;;;;;;;;5020785;28;20049;-66
2022/07/29 12:56:01;;;;;;;11.30;3.08;;;;;;;;;;5004294;28;20057;-65
2022/07/29 12:58:33;;;;;;;10.65;3.03;;;;;;;;;;5024764;28;20052;-65
2022/07/29 13:01:05;;;;;;;10.30;3.15;;;;;;;;;;5017130;28;20053;-65
2022/07/29 13:03:43;;;;;;;9.53;2.93;;;;;;;;;;4998237;28;20112;-65
2022/07/29 13:06:25;;;;;;;10.73;2.83;;;;;;;;;;5024953;28;20064;-65
2022/07/29 13:09:00;;;;;;;8.07;2.42;;;;;;;;;;5019394;28;20519;-65
2022/07/29 13:11:32;;;;;;;11.82;3.25;;;;;;;;;;5013692;28;20085;-65
2022/07/29 13:13:59;;;;;;;12.98;2.83;;;;;;;;;;5017165;28;20054;-65
2022/07/29 13:16:26;;;;;;;14.57;3.05;;;;;;;;;;4996429;28;20045;-65
2022/07/29 13:19:07;;;;;;;5.88;2.47;;;;;;;;;;5023323;28;20053;-65
2022/07/29 13:21:34;;;;;;;8.68;2.50;;;;;;;;;;5021208;28;20050;-65
2022/07/29 13:24:01;;;;;;;13.70;3.50;;;;;;;;;;5004718;28;20066;-65
2022/07/29 13:26:29;;;;;;;7.60;2.25;;;;;;;;;;5004608;28;20049;-65
2022/07/29 13:28:57;;;;;;;11.63;2.95;;;;;;;;;;5023479;28;20053;-65
2022/07/29 13:31:24;;;;;;;12.73;2.83;;;;;;;;;;5022280;28;20045;-66
2022/07/29 13:33:52;;;;;;;7.18;3.10;;;;;;;;;;5022257;28;20060;-65
2022/07/29 13:36:20;;;;;;;9.20;2.97;;;;;;;;;;5026644;28;20049;-65
2022/07/29 13:38:47;;;;;;;12.95;3.63;;;;;;;;;;5026807;28;20111;-66
2022/07/29 13:41:14;;;;;;;9.65;2.90;;;;;;;;;;5026815;28;20049;-66
2022/07/29 13:43:41;;;;;;;12.77;3.13;;;;;;;;;;5023237;28;20881;-66
2022/07/29 13:46:10;;;;;;;7.88;2.60;;;;;;;;;;5027059;28;20677;-66
2022/07/29 13:48:37;;;;;;;6.82;2.88;;;;;;;;;;5007390;28;20052;-66
2022/07/29 13:51:04;;;;;;;11.13;2.85;;;;;;;;;;5028554;28;20100;-66
2022/07/29 13:53:32;;;;;;;11.68;3.25;;;;;;;;;;5026702;28;20456;-67
2022/07/29 13:55:59;;;;;;;7.65;3.00;;;;;;;;;;5023732;28;20045;-66
2022/07/29 13:58:26;;;;;;;6.72;2.88;;;;;;;;;;5019844;28;20049;-66
2022/07/29 14:00:54;;;;;;;7.35;2.85;;;;;;;;;;5025912;28;20053;-66
2022/07/29 14:03:22;;;;;;;9.60;2.85;;;;;;;;;;5028282;28;20448;-66
2022/07/29 14:05:49;;;;;;;7.85;2.63;;;;;;;;;;5027181;28;20045;-66
2022/07/29 14:08:17;;;;;;;8.85;2.70;;;;;;;;;;5021901;28;20048;-66
2022/07/29 14:10:44;;;;;;;6.82;2.78;;;;;;;;;;5022261;28;20538;-66
2022/07/29 14:13:11;;;;;;;10.07;2.90;;;;;;;;;;5022942;28;20050;-65
2022/07/29 14:15:38;;;;;;;11.80;2.90;;;;;;;;;;5005070;28;20046;-65
2022/07/29 14:18:06;;;;;;;7.75;2.53;;;;;;;;;;5019758;28;20050;-66
2022/07/29 14:20:34;;;;;;;7.88;2.83;;;;;;;;;;5016871;28;20053;-66
2022/07/29 14:23:02;;;;;;;10.10;3.08;;;;;;;;;;5005539;28;20053;-66
2022/07/29 14:25:29;;;;;;;11.48;3.35;;;;;;;;;;5027579;28;20042;-66
2022/07/29 14:27:56;;;;;;;11.18;3.05;;;;;;;;;;5027293;28;20068;-66
2022/07/29 14:30:23;;;;;;;5.78;2.70;;;;;;;;;;5023652;28;20045;-66
2022/07/29 14:32:50;;;;;;;5.65;2.90;;;;;;;;;;5024115;28;20118;-66
2022/07/29 14:35:18;;;;;;;8.15;2.78;;;;;;;;;;5018989;28;20050;-66
2022/07/29 14:37:46;;;;;;;7.10;2.95;;;;;;;;;;5021810;28;20113;-67
2022/07/29 14:40:13;;;;;;;6.05;2.80;;;;;;;;;;5019049;28;20115;-66
2022/07/29 14:42:41;;;;;;;10.15;2.78;;;;;;;;;;5022868;28;20058;-66
2022/07/29 14:45:09;;;;;;;5.82;2.60;;;;;;;;;;5021705;28;20488;-66
2022/07/29 14:47:36;;;;;;;6.97;2.53;;;;;;;;;;5023023;28;20081;-66
2022/07/29 14:50:04;;;;;;;7.90;2.65;;;;;;;;;;5026501;28;20624;-66
2022/07/29 14:52:31;;;;;;;7.93;2.53;;;;;;;;;;5017384;28;20179;-67
2022/07/29 14:55:00;;;;;;;9.95;2.90;;;;;;;;;;5026006;28;20068;-66
2022/07/29 14:57:27;;;;;;;6.95;2.88;;;;;;;;;;5024341;28;20132;-66
2022/07/29 14:59:54;;;;;;;8.18;2.40;;;;;;;;;;5025539;28;20053;-66